Time;durP1;ratioP1;P1;durP2;ratioP2;P2;SDS_P1;SDS_P2;PMS_P1;PMS_P2;Temp;Humidity;BMP_temperature;BMP_pressure;BME280_temperature;BME280_humidity;BME280_pressure;Samples;Min_cycle;Max_cycle;Signal;HPM_P1;HPM_P2
2022/06/23 00:02:25;;;;;;;;;;;19.60;51.50;;;;;;5005503;28;19952;-80
2022/06/23 00:04:53;;;;;;;;;;;19.50;52.60;;;;;;4995652;28;20008;-80
2022/06/23 00:07:19;;;;;;;;;;;19.30;53.10;;;;;;5013677;28;19935;-80
2022/06/23 00:09:44;;;;;;;;;;;19.20;53.60;;;;;;4994264;28;20310;-79
2022/06/23 00:12:16;;;;;;;;;;;19.10;54.10;;;;;;5039101;23;19976;-87
2022/06/23 00:14:41;;;;;;;;;;;19.10;54.20;;;;;;5033513;28;19947;-83
2022/06/23 00:17:16;;;;;;;;;;;19.10;54.40;;;;;;5033076;28;19953;-84
2022/06/23 00:19:42;;;;;;;;;;;19.00;53.50;;;;;;5042487;28;19933;-83
2022/06/23 00:22:08;;;;;;;;;;;19.10;52.70;;;;;;5030774;28;19921;-84
2022/06/23 00:24:37;;;;;;;;;;;19.10;53.50;;;;;;5018386;28;19913;-84
2022/06/23 00:27:03;;;;;;;;;;;19.20;52.50;;;;;;5050895;28;19933;-84
2022/06/23 00:29:29;;;;;;;;;;;19.10;52.40;;;;;;5045980;28;19924;-84
2022/06/23 00:31:56;;;;;;;;;;;19.30;51.90;;;;;;5031442;28;19966;-83
2022/06/23 00:34:26;;;;;;;;;;;19.40;51.70;;;;;;5045735;28;19921;-84
2022/06/23 00:36:53;;;;;;;;;;;19.40;51.60;;;;;;5041447;28;19989;-84
2022/06/23 00:39:21;;;;;;;;;;;19.10;53.20;;;;;;5032492;28;19921;-86
2022/06/23 00:41:47;;;;;;;;;;;18.90;54.40;;;;;;5045235;28;19943;-84
2022/06/23 00:44:16;;;;;;;;;;;18.80;55.90;;;;;;5050199;28;20020;-84
2022/06/23 00:46:47;;;;;;;;;;;18.80;56.30;;;;;;5047329;28;20406;-83
2022/06/23 00:49:13;;;;;;;;;;;18.60;56.00;;;;;;5043624;28;19978;-85
2022/06/23 00:51:42;;;;;;;;;;;18.60;56.00;;;;;;5031068;28;19918;-85
2022/06/23 00:54:17;;;;;;;;;;;18.50;56.50;;;;;;5040247;28;19913;-85
2022/06/23 00:56:55;;;;;;;;;;;18.50;56.70;;;;;;5029645;28;21328;-85
2022/06/23 00:59:23;;;;;;;;;;;18.50;56.80;;;;;;5038403;28;19979;-85
2022/06/23 01:01:56;;;;;;;;;;;18.40;58.10;;;;;;5044117;28;19961;-84
2022/06/23 01:04:21;;;;;;;;;;;18.40;57.90;;;;;;5041153;28;19909;-85
2022/06/23 01:06:52;;;;;;;;;;;18.30;58.30;;;;;;5034084;28;19914;-85
2022/06/23 01:09:22;;;;;;;;;;;18.30;56.50;;;;;;5029959;28;19963;-86
2022/06/23 01:11:51;;;;;;;;;;;18.30;56.50;;;;;;5033328;28;19917;-85
2022/06/23 01:14:19;;;;;;;;;;;18.40;56.30;;;;;;5040445;28;20031;-85
2022/06/23 01:16:45;;;;;;;;;;;18.40;56.60;;;;;;5028856;28;20048;-85
2022/06/23 01:19:28;;;;;;;;;;;18.30;57.00;;;;;;5041395;28;20015;-86
2022/06/23 01:22:00;;;;;;;;;;;18.30;56.50;;;;;;5025232;28;19917;-86
2022/06/23 01:24:28;;;;;;;;;;;18.30;57.20;;;;;;5036804;28;19991;-85
2022/06/23 01:27:06;;;;;;;;;;;18.30;57.00;;;;;;5043786;28;19924;-84
2022/06/23 01:30:04;;;;;;;;;;;18.30;57.60;;;;;;5040777;28;19917;-85
2022/06/23 01:32:35;;;;;;;;;;;18.20;56.50;;;;;;5008562;28;19925;-85
2022/06/23 01:35:06;;;;;;;;;;;18.30;56.80;;;;;;5027829;28;20243;-85
2022/06/23 01:37:41;;;;;;;;;;;18.40;56.60;;;;;;5023395;28;19928;-85
2022/06/23 01:40:18;;;;;;;;;;;18.40;56.20;;;;;;5039124;28;20003;-85
2022/06/23 01:42:51;;;;;;;;;;;18.40;56.20;;;;;;5031593;28;19948;-84
2022/06/23 01:45:23;;;;;;;;;;;18.40;56.30;;;;;;5037651;28;20049;-84
2022/06/23 01:47:59;;;;;;;;;;;18.50;56.10;;;;;;5036960;28;19909;-84
2022/06/23 01:50:31;;;;;;;;;;;18.20;57.60;;;;;;5050065;28;19917;-85
2022/06/23 01:53:09;;;;;;;;;;;18.10;58.40;;;;;;5040902;28;20367;-85
2022/06/23 01:55:45;;;;;;;;;;;18.00;59.30;;;;;;5037777;28;19924;-84
2022/06/23 01:58:12;;;;;;;;;;;17.90;59.40;;;;;;5041113;28;19951;-84
2022/06/23 02:00:40;;;;;;;;;;;17.80;59.80;;;;;;5030768;28;19959;-84
2022/06/23 02:03:11;;;;;;;;;;;17.80;59.90;;;;;;5041102;28;19933;-85
2022/06/23 02:05:40;;;;;;;;;;;17.80;59.40;;;;;;5030157;28;19967;-85
2022/06/23 02:08:24;;;;;;;;;;;17.90;59.10;;;;;;5008356;28;19971;-85
2022/06/23 02:10:53;;;;;;;;;;;17.80;59.60;;;;;;5036215;28;19913;-84
2022/06/23 02:13:18;;;;;;;;;;;17.80;59.70;;;;;;5027910;28;19917;-84
2022/06/23 02:16:05;;;;;;;;;;;17.80;59.40;;;;;;5041659;28;19923;-84
2022/06/23 02:18:37;;;;;;;;;;;17.70;60.40;;;;;;5042544;28;19917;-85
2022/06/23 02:21:21;;;;;;;;;;;17.70;61.00;;;;;;5043216;28;19936;-83
2022/06/23 02:23:49;;;;;;;;;;;17.70;60.90;;;;;;5033201;28;19925;-84
2022/06/23 02:26:19;;;;;;;;;;;17.60;60.90;;;;;;5037283;28;19937;-83
2022/06/23 02:28:49;;;;;;;;;;;17.60;61.10;;;;;;5024632;28;19924;-83
2022/06/23 02:31:17;;;;;;;;;;;17.60;61.70;;;;;;5038939;28;19917;-83
2022/06/23 02:33:49;;;;;;;;;;;17.60;61.50;;;;;;5019670;28;20140;-84
2022/06/23 02:36:37;;;;;;;;;;;17.50;62.00;;;;;;5027375;28;19964;-83
2022/06/23 02:39:26;;;;;;;;;;;17.50;61.50;;;;;;5027862;28;19913;-84
2022/06/23 02:41:55;;;;;;;;;;;17.50;61.90;;;;;;5025401;28;19917;-84
2022/06/23 02:44:28;;;;;;;;;;;17.50;62.00;;;;;;5039797;28;19909;-83
2022/06/23 02:47:21;;;;;;;;;;;17.50;62.60;;;;;;5029534;28;20641;-84
2022/06/23 02:49:55;;;;;;;;;;;17.50;63.00;;;;;;5039769;28;19924;-83
2022/06/23 02:52:36;;;;;;;;;;;17.30;62.90;;;;;;5023966;28;19916;-83
2022/06/23 02:55:19;;;;;;;;;;;17.40;63.20;;;;;;5037850;28;19925;-84
2022/06/23 02:57:59;;;;;;;;;;;17.30;63.20;;;;;;5037848;28;20008;-83
2022/06/23 03:00:30;;;;;;;;;;;17.40;63.20;;;;;;5035820;28;19917;-84
2022/06/23 03:03:04;;;;;;;;;;;17.40;63.10;;;;;;5036643;28;19973;-83
2022/06/23 03:05:33;;;;;;;;;;;17.40;63.20;;;;;;5041519;28;19925;-84
2022/06/23 03:08:09;;;;;;;;;;;17.30;63.50;;;;;;5031688;28;19921;-83
2022/06/23 03:10:43;;;;;;;;;;;17.30;63.60;;;;;;5020666;28;20055;-83
2022/06/23 03:13:12;;;;;;;;;;;17.30;63.50;;;;;;5041525;28;19917;-83
2022/06/23 03:15:42;;;;;;;;;;;17.10;64.00;;;;;;5042617;28;19922;-83
2022/06/23 03:18:09;;;;;;;;;;;17.10;64.30;;;;;;5036083;28;19917;-83
2022/06/23 03:20:37;;;;;;;;;;;17.10;63.90;;;;;;5041539;28;19988;-83
2022/06/23 03:23:02;;;;;;;;;;;17.00;65.10;;;;;;5042748;28;19913;-84
2022/06/23 03:25:31;;;;;;;;;;;17.00;65.40;;;;;;5028706;28;19924;-83
2022/06/23 03:28:08;;;;;;;;;;;17.10;65.80;;;;;;5043380;28;19913;-85
2022/06/23 03:30:43;;;;;;;;;;;17.00;66.20;;;;;;5041481;28;19917;-84
2022/06/23 03:33:16;;;;;;;;;;;17.00;66.60;;;;;;5040665;28;19939;-83
2022/06/23 03:35:48;;;;;;;;;;;17.00;66.60;;;;;;5037620;28;19978;-84
2022/06/23 03:41:36;;;;;;;;;;;17.00;66.50;;;;;;5034761;28;19944;-84
2022/06/23 03:41:59;;;;;;;;;;;17.10;66.10;;;;;;5022475;28;19928;-84
2022/06/23 03:44:06;;;;;;;;;;;17.10;66.30;;;;;;5030092;28;19909;-84
2022/06/23 03:46:39;;;;;;;;;;;17.10;66.60;;;;;;5008993;28;19913;-84
2022/06/23 03:49:17;;;;;;;;;;;17.10;66.30;;;;;;5029826;28;19913;-84
2022/06/23 03:51:49;;;;;;;;;;;17.00;67.00;;;;;;5031483;28;19913;-84
2022/06/23 03:54:23;;;;;;;;;;;17.10;67.00;;;;;;5034856;28;19924;-84
2022/06/23 03:57:02;;;;;;;;;;;17.00;67.30;;;;;;5037657;28;19977;-84
2022/06/23 03:59:30;;;;;;;;;;;17.00;67.40;;;;;;5051854;28;19924;-84
2022/06/23 04:02:02;;;;;;;;;;;17.00;67.20;;;;;;5051815;28;19921;-84
2022/06/23 04:04:43;;;;;;;;;;;17.00;67.10;;;;;;5053622;28;20434;-84
2022/06/23 04:07:27;;;;;;;;;;;17.00;67.80;;;;;;5047896;28;19964;-84
2022/06/23 04:09:52;;;;;;;;;;;17.00;67.40;;;;;;5037241;28;19914;-83
2022/06/23 04:12:18;;;;;;;;;;;17.00;67.10;;;;;;5051228;28;19921;-85
2022/06/23 04:14:43;;;;;;;;;;;17.00;66.50;;;;;;5043147;28;19913;-84
2022/06/23 04:17:19;;;;;;;;;;;17.00;67.00;;;;;;5031420;28;19992;-83
2022/06/23 04:19:47;;;;;;;;;;;17.10;67.20;;;;;;5053425;28;19921;-85
2022/06/23 04:22:15;;;;;;;;;;;17.20;67.10;;;;;;5043905;28;19936;-83
2022/06/23 04:24:45;;;;;;;;;;;17.10;67.30;;;;;;5021185;28;20004;-83
2022/06/23 04:27:14;;;;;;;;;;;17.10;67.60;;;;;;5053046;28;19913;-84
2022/06/23 04:29:41;;;;;;;;;;;17.20;67.50;;;;;;5044417;28;19901;-84
2022/06/23 04:32:08;;;;;;;;;;;17.20;68.50;;;;;;5050378;28;19913;-83
2022/06/23 04:34:36;;;;;;;;;;;17.20;68.20;;;;;;5033868;28;19923;-84
2022/06/23 04:37:02;;;;;;;;;;;17.20;68.40;;;;;;5023928;28;19917;-84
2022/06/23 04:39:34;;;;;;;;;;;17.30;68.20;;;;;;5040874;28;19920;-84
2022/06/23 04:42:07;;;;;;;;;;;17.40;68.00;;;;;;5019929;28;19921;-83
2022/06/23 04:44:34;;;;;;;;;;;17.40;68.20;;;;;;5032964;28;19968;-84
2022/06/23 04:47:06;;;;;;;;;;;17.40;68.40;;;;;;5049056;28;20192;-83
2022/06/23 04:49:43;;;;;;;;;;;17.50;68.30;;;;;;5042879;28;19941;-84
2022/06/23 04:52:13;;;;;;;;;;;17.60;68.00;;;;;;5045976;28;20367;-85
2022/06/23 04:54:48;;;;;;;;;;;17.60;68.10;;;;;;5046407;28;19905;-83
2022/06/23 04:57:20;;;;;;;;;;;17.60;68.30;;;;;;5026907;28;20010;-84
2022/06/23 04:59:50;;;;;;;;;;;17.60;68.00;;;;;;5029449;28;19913;-83
2022/06/23 05:02:15;;;;;;;;;;;17.70;68.00;;;;;;5039804;28;19965;-85
2022/06/23 05:04:43;;;;;;;;;;;17.70;68.50;;;;;;5020556;28;19926;-82
2022/06/23 05:07:18;;;;;;;;;;;17.80;67.70;;;;;;5047759;28;19981;-83
2022/06/23 05:09:43;;;;;;;;;;;17.90;67.80;;;;;;5018839;28;20348;-82
2022/06/23 05:12:24;;;;;;;;;;;17.90;67.80;;;;;;5038099;28;19943;-84
2022/06/23 05:14:57;;;;;;;;;;;18.10;67.90;;;;;;5033935;28;19928;-81
2022/06/23 05:17:25;;;;;;;;;;;18.10;67.50;;;;;;5033476;28;20574;-82
2022/06/23 05:19:56;;;;;;;;;;;18.10;67.20;;;;;;5030976;28;19952;-82
2022/06/23 05:22:43;;;;;;;;;;;18.20;66.60;;;;;;5042382;28;19963;-80
2022/06/23 05:25:23;;;;;;;;;;;18.30;66.70;;;;;;5024708;28;19969;-84
2022/06/23 05:27:48;;;;;;;;;;;18.40;67.30;;;;;;5033390;28;20112;-82
2022/06/23 05:30:14;;;;;;;;;;;18.60;65.30;;;;;;5032984;28;19993;-80
2022/06/23 05:32:45;;;;;;;;;;;18.60;66.00;;;;;;5039408;28;19913;-82
2022/06/23 05:35:23;;;;;;;;;;;18.60;66.40;;;;;;5034223;28;19994;-82
2022/06/23 05:37:53;;;;;;;;;;;18.70;67.00;;;;;;5016108;28;19925;-82
2022/06/23 05:40:19;;;;;;;;;;;18.80;67.40;;;;;;5012287;28;19917;-84
2022/06/23 05:42:47;;;;;;;;;;;18.90;66.90;;;;;;5025469;28;20057;-84
2022/06/23 05:45:24;;;;;;;;;;;19.10;64.40;;;;;;5036710;28;19914;-82
2022/06/23 05:47:49;;;;;;;;;;;19.10;64.80;;;;;;5030861;28;19955;-82
2022/06/23 05:50:27;;;;;;;;;;;19.10;65.50;;;;;;5026270;28;19913;-82
2022/06/23 05:52:58;;;;;;;;;;;19.20;64.80;;;;;;5039415;28;19978;-83
2022/06/23 05:55:43;;;;;;;;;;;19.40;64.30;;;;;;5024285;28;19928;-84
2022/06/23 05:58:11;;;;;;;;;;;19.40;64.90;;;;;;5021590;28;19936;-84
2022/06/23 06:00:37;;;;;;;;;;;19.50;64.80;;;;;;5029888;28;19917;-83
2022/06/23 06:03:09;;;;;;;;;;;19.60;62.70;;;;;;5035628;28;19939;-84
2022/06/23 06:05:39;;;;;;;;;;;19.70;63.40;;;;;;5042264;28;19917;-84
2022/06/23 06:08:11;;;;;;;;;;;19.80;63.30;;;;;;5035781;28;19913;-84
2022/06/23 06:10:36;;;;;;;;;;;19.90;62.60;;;;;;5032848;28;19947;-84
2022/06/23 06:13:03;;;;;;;;;;;20.00;62.90;;;;;;5033561;28;19917;-86
2022/06/23 06:15:35;;;;;;;;;;;20.10;62.70;;;;;;5021355;28;19913;-86
2022/06/23 06:18:04;;;;;;;;;;;20.20;62.00;;;;;;5026313;28;20078;-83
2022/06/23 06:20:30;;;;;;;;;;;20.30;62.40;;;;;;5033072;28;19924;-83
2022/06/23 06:23:03;;;;;;;;;;;20.40;62.30;;;;;;5050352;28;20012;-83
2022/06/23 06:25:30;;;;;;;;;;;20.50;61.40;;;;;;5044662;28;19936;-83
2022/06/23 06:27:59;;;;;;;;;;;20.50;60.90;;;;;;5022092;28;19913;-83
2022/06/23 06:30:26;;;;;;;;;;;20.70;60.90;;;;;;5042580;28;19960;-83
2022/06/23 06:32:52;;;;;;;;;;;20.80;59.80;;;;;;5042346;28;20005;-83
2022/06/23 06:35:29;;;;;;;;;;;20.90;60.40;;;;;;5043073;28;19914;-83
2022/06/23 06:38:05;;;;;;;;;;;21.00;60.10;;;;;;5043764;28;19919;-83
2022/06/23 06:40:31;;;;;;;;;;;21.10;60.00;;;;;;5041659;28;19940;-83
2022/06/23 06:42:59;;;;;;;;;;;21.10;59.40;;;;;;5034804;28;19987;-83
2022/06/23 06:45:26;;;;;;;;;;;21.20;59.50;;;;;;5036468;28;20101;-83
2022/06/23 06:47:52;;;;;;;;;;;21.30;59.40;;;;;;5024347;28;19913;-81
2022/06/23 06:50:17;;;;;;;;;;;21.40;58.90;;;;;;5021202;28;19913;-81
2022/06/23 06:52:43;;;;;;;;;;;21.50;58.20;;;;;;5036241;28;20095;-84
2022/06/23 06:55:14;;;;;;;;;;;21.70;57.80;;;;;;5028307;28;19917;-81
2022/06/23 06:57:43;;;;;;;;;;;21.80;57.90;;;;;;5039785;28;19963;-81
2022/06/23 07:00:14;;;;;;;;;;;21.80;57.50;;;;;;5023026;28;19913;-83
2022/06/23 07:02:46;;;;;;;;;;;21.80;58.10;;;;;;5041645;28;19964;-81
2022/06/23 07:05:20;;;;;;;;;;;21.90;58.90;;;;;;5018771;28;19980;-81
2022/06/23 07:07:48;;;;;;;;;;;22.00;57.90;;;;;;5023541;28;19913;-82
2022/06/23 07:10:23;;;;;;;;;;;22.20;57.20;;;;;;5042444;28;19917;-83
2022/06/23 07:12:54;;;;;;;;;;;22.30;57.30;;;;;;5035712;28;19955;-82
2022/06/23 07:15:26;;;;;;;;;;;22.30;57.10;;;;;;5032917;28;19918;-82
2022/06/23 07:17:56;;;;;;;;;;;22.40;56.90;;;;;;5018003;28;19949;-83
2022/06/23 07:20:24;;;;;;;;;;;22.50;56.60;;;;;;5029961;28;19955;-83
2022/06/23 07:22:49;;;;;;;;;;;22.60;57.00;;;;;;5027147;28;19917;-83
2022/06/23 07:25:18;;;;;;;;;;;22.70;56.00;;;;;;5032607;28;19913;-83
2022/06/23 07:27:47;;;;;;;;;;;22.80;56.00;;;;;;5009802;28;19917;-83
2022/06/23 07:30:15;;;;;;;;;;;22.90;56.00;;;;;;5017784;28;19909;-83
2022/06/23 07:32:52;;;;;;;;;;;23.00;55.10;;;;;;5039956;28;19913;-83
2022/06/23 07:35:26;;;;;;;;;;;23.10;56.10;;;;;;5043621;28;19909;-82
2022/06/23 07:38:10;;;;;;;;;;;23.20;56.80;;;;;;5020192;28;19936;-83
2022/06/23 07:40:54;;;;;;;;;;;23.20;56.30;;;;;;5022461;28;19913;-83
2022/06/23 07:43:26;;;;;;;;;;;23.30;56.00;;;;;;5036035;28;19992;-86
2022/06/23 07:45:56;;;;;;;;;;;23.60;55.60;;;;;;5053326;28;19928;-84
2022/06/23 07:48:23;;;;;;;;;;;23.60;56.00;;;;;;5027653;28;19970;-81
2022/06/23 07:50:48;;;;;;;;;;;23.70;57.00;;;;;;5051175;28;19960;-84
2022/06/23 07:53:17;;;;;;;;;;;23.80;55.90;;;;;;5031164;28;19913;-84
2022/06/23 07:55:43;;;;;;;;;;;24.00;56.10;;;;;;5039351;28;19967;-84
2022/06/23 07:58:09;;;;;;;;;;;24.10;55.20;;;;;;5045008;28;19992;-84
2022/06/23 08:00:37;;;;;;;;;;;24.30;55.50;;;;;;5040356;28;19959;-84
2022/06/23 08:03:13;;;;;;;;;;;24.40;55.30;;;;;;5026195;28;19971;-85
2022/06/23 08:05:43;;;;;;;;;;;24.70;53.20;;;;;;5041130;28;19955;-85
2022/06/23 08:08:14;;;;;;;;;;;24.80;53.90;;;;;;5014020;28;19917;-85
2022/06/23 08:10:40;;;;;;;;;;;24.60;54.80;;;;;;5044172;28;19924;-85
2022/06/23 08:13:13;;;;;;;;;;;24.60;54.20;;;;;;5044819;28;19973;-85
2022/06/23 08:18:43;;;;;;;;;;;24.60;54.30;;;;;;5032387;28;19932;-85
2022/06/23 08:21:11;;;;;;;;;;;24.90;53.80;;;;;;5045417;28;19913;-85
2022/06/23 08:23:38;;;;;;;;;;;24.90;54.40;;;;;;5027889;28;19924;-84
2022/06/23 08:26:10;;;;;;;;;;;25.00;53.90;;;;;;5020162;28;19936;-84
2022/06/23 08:28:36;;;;;;;;;;;25.10;53.30;;;;;;5022568;28;20019;-85
2022/06/23 08:31:02;;;;;;;;;;;25.20;53.30;;;;;;5044533;28;19913;-85
2022/06/23 08:33:33;;;;;;;;;;;25.40;53.00;;;;;;5044864;28;20251;-85
2022/06/23 08:36:04;;;;;;;;;;;25.40;52.80;;;;;;5020826;28;19952;-84
2022/06/23 08:38:50;;;;;;;;;;;25.40;52.50;;;;;;5041264;28;19924;-85
2022/06/23 08:41:16;;;;;;;;;;;25.60;51.40;;;;;;5028894;28;19913;-85
2022/06/23 08:44:04;;;;;;;;;;;25.80;51.70;;;;;;5025466;28;20003;-85
2022/06/23 08:46:39;;;;;;;;;;;25.80;49.90;;;;;;5042669;28;19924;-85
2022/06/23 08:49:07;;;;;;;;;;;25.90;50.10;;;;;;5025326;28;19913;-85
2022/06/23 08:51:41;;;;;;;;;;;25.90;50.00;;;;;;5036062;28;19909;-85
2022/06/23 08:54:12;;;;;;;;;;;26.00;49.70;;;;;;5046640;28;19996;-84
2022/06/23 08:56:41;;;;;;;;;;;26.00;50.10;;;;;;5020275;28;20378;-85
2022/06/23 08:59:27;;;;;;;;;;;26.00;49.30;;;;;;5039576;28;19962;-84
2022/06/23 09:02:00;;;;;;;;;;;26.20;48.20;;;;;;5039779;28;19913;-84
2022/06/23 09:04:35;;;;;;;;;;;26.20;48.10;;;;;;5018057;28;19909;-85
2022/06/23 09:07:15;;;;;;;;;;;26.50;48.50;;;;;;5034472;28;19913;-85
2022/06/23 09:09:53;;;;;;;;;;;26.50;47.80;;;;;;5013794;28;20435;-84
2022/06/23 09:12:22;;;;;;;;;;;26.60;46.20;;;;;;5038001;28;19940;-85
2022/06/23 09:14:56;;;;;;;;;;;26.60;46.10;;;;;;5026788;28;19921;-85
2022/06/23 09:17:31;;;;;;;;;;;26.60;46.20;;;;;;5053199;28;19972;-84
2022/06/23 09:20:16;;;;;;;;;;;26.60;45.70;;;;;;5038122;28;20006;-85
2022/06/23 09:22:48;;;;;;;;;;;26.90;44.50;;;;;;5045593;28;19921;-85
2022/06/23 09:25:16;;;;;;;;;;;27.10;44.40;;;;;;5015265;28;19992;-86
2022/06/23 09:28:03;;;;;;;;;;;27.10;44.00;;;;;;5029719;28;19918;-85
2022/06/23 09:30:40;;;;;;;;;;;27.40;45.10;;;;;;5039953;28;19977;-85
2022/06/23 09:33:21;;;;;;;;;;;27.30;44.20;;;;;;5035165;28;19952;-85
2022/06/23 09:35:50;;;;;;;;;;;27.30;42.50;;;;;;5019757;28;19909;-85
2022/06/23 09:38:34;;;;;;;;;;;27.30;42.10;;;;;;5008036;28;19909;-85
2022/06/23 09:41:19;;;;;;;;;;;27.60;41.90;;;;;;5040741;28;19976;-85
2022/06/23 09:43:56;;;;;;;;;;;27.50;41.40;;;;;;5041168;28;19929;-85
2022/06/23 09:46:24;;;;;;;;;;;27.60;42.30;;;;;;5031076;28;20398;-87
2022/06/23 09:49:08;;;;;;;;;;;27.40;43.20;;;;;;5037813;28;20282;-85
2022/06/23 09:51:43;;;;;;;;;;;27.50;42.80;;;;;;5009467;28;21267;-86
2022/06/23 09:54:19;;;;;;;;;;;27.60;41.40;;;;;;5032801;28;19921;-85
2022/06/23 09:56:58;;;;;;;;;;;27.80;42.80;;;;;;5016426;28;19913;-86
2022/06/23 09:59:36;;;;;;;;;;;27.80;41.80;;;;;;5013657;28;19926;-86
2022/06/23 10:02:18;;;;;;;;;;;27.90;42.00;;;;;;5032582;28;20287;-85
2022/06/23 10:04:44;;;;;;;;;;;28.00;42.00;;;;;;5012022;28;19917;-85
2022/06/23 10:07:19;;;;;;;;;;;28.00;42.10;;;;;;5035894;28;19922;-85
2022/06/23 10:09:53;;;;;;;;;;;27.90;41.10;;;;;;5015936;28;19922;-86
2022/06/23 10:12:37;;;;;;;;;;;27.80;41.60;;;;;;5021404;28;19924;-84
2022/06/23 10:15:17;;;;;;;;;;;27.80;42.30;;;;;;5016104;28;20300;-86
2022/06/23 10:17:50;;;;;;;;;;;27.90;42.10;;;;;;5033162;28;19975;-85
2022/06/23 10:20:21;;;;;;;;;;;28.10;40.60;;;;;;5034537;28;19935;-85
2022/06/23 10:22:46;;;;;;;;;;;28.10;40.40;;;;;;5031129;28;19921;-85
2022/06/23 10:25:18;;;;;;;;;;;28.10;40.80;;;;;;5013381;28;19956;-87
2022/06/23 10:28:02;;;;;;;;;;;28.10;40.40;;;;;;5010732;28;19921;-86
2022/06/23 10:30:54;;;;;;;;;;;28.10;41.00;;;;;;5012859;28;19918;-86
2022/06/23 10:33:38;;;;;;;;;;;28.20;40.50;;;;;;4997957;28;20244;-86
2022/06/23 10:36:16;;;;;;;;;;;28.40;39.20;;;;;;5027232;28;19913;-85
2022/06/23 10:38:55;;;;;;;;;;;28.40;39.80;;;;;;5034221;28;19913;-86
2022/06/23 10:41:30;;;;;;;;;;;28.40;40.80;;;;;;5026291;28;19917;-86
2022/06/23 10:43:56;;;;;;;;;;;28.20;40.80;;;;;;5019212;28;19920;-86
2022/06/23 10:46:30;;;;;;;;;;;28.30;40.60;;;;;;5008049;28;19913;-86
2022/06/23 10:48:59;;;;;;;;;;;28.30;40.20;;;;;;5025431;28;19918;-86
2022/06/23 10:51:32;;;;;;;;;;;28.30;40.60;;;;;;5019484;28;19964;-86
2022/06/23 10:54:14;;;;;;;;;;;28.60;40.70;;;;;;5017945;28;20364;-86
2022/06/23 10:57:07;;;;;;;;;;;28.70;40.70;;;;;;5017746;28;19913;-86
2022/06/23 10:59:45;;;;;;;;;;;28.60;41.80;;;;;;5021929;28;19909;-84
2022/06/23 11:02:13;;;;;;;;;;;28.70;39.80;;;;;;5012813;28;19979;-87
2022/06/23 11:04:45;;;;;;;;;;;28.90;39.90;;;;;;5020280;28;19909;-86
2022/06/23 11:07:18;;;;;;;;;;;28.80;39.20;;;;;;5012625;28;19913;-86
2022/06/23 11:10:07;;;;;;;;;;;28.70;38.90;;;;;;5015301;28;19924;-84
2022/06/23 11:12:40;;;;;;;;;;;28.70;40.40;;;;;;5030631;28;19917;-84
2022/06/23 11:15:09;;;;;;;;;;;28.80;39.60;;;;;;5035303;28;20024;-84
2022/06/23 11:17:43;;;;;;;;;;;29.00;38.40;;;;;;5017007;28;20353;-84
2022/06/23 11:20:28;;;;;;;;;;;29.10;39.80;;;;;;5021109;28;19913;-84
2022/06/23 11:23:05;;;;;;;;;;;29.20;39.90;;;;;;5034720;28;20246;-83
2022/06/23 11:25:39;;;;;;;;;;;29.10;39.80;;;;;;5036856;28;19924;-86
2022/06/23 11:28:14;;;;;;;;;;;29.10;39.50;;;;;;5015598;28;20010;-83
2022/06/23 11:30:47;;;;;;;;;;;29.10;39.40;;;;;;5028903;28;21353;-84
2022/06/23 11:33:31;;;;;;;;;;;29.30;38.40;;;;;;5029290;28;19909;-85
2022/06/23 11:36:03;;;;;;;;;;;29.10;39.60;;;;;;5016491;28;19920;-85
2022/06/23 11:38:31;;;;;;;;;;;29.00;40.90;;;;;;5023792;28;19913;-83
2022/06/23 11:41:16;;;;;;;;;;;28.90;40.30;;;;;;5004061;28;19917;-83
2022/06/23 11:44:11;;;;;;;;;;;29.00;38.90;;;;;;5007147;28;19952;-85
2022/06/23 11:46:42;;;;;;;;;;;29.00;40.10;;;;;;5040367;28;19938;-82
2022/06/23 11:49:11;;;;;;;;;;;29.20;39.30;;;;;;5009661;28;20034;-83
2022/06/23 11:51:53;;;;;;;;;;;29.10;39.50;;;;;;5002707;28;20031;-82
2022/06/23 11:54:19;;;;;;;;;;;29.20;39.60;;;;;;5019001;28;19959;-83
2022/06/23 11:56:53;;;;;;;;;;;29.30;38.20;;;;;;5018770;28;20008;-83
2022/06/23 11:59:24;;;;;;;;;;;29.10;38.70;;;;;;5001094;28;20188;-82
2022/06/23 12:01:50;;;;;;;;;;;29.10;38.70;;;;;;4997131;28;19925;-83
2022/06/23 12:04:34;;;;;;;;;;;29.20;38.30;;;;;;5015372;28;20386;-83
2022/06/23 12:07:03;;;;;;;;;;;29.30;39.30;;;;;;5003519;28;19917;-82
2022/06/23 12:09:31;;;;;;;;;;;29.50;37.10;;;;;;4996872;28;20380;-82
2022/06/23 12:11:58;;;;;;;;;;;29.30;37.90;;;;;;5018165;28;19921;-83
2022/06/23 12:14:24;;;;;;;;;;;29.30;38.00;;;;;;4999489;28;19917;-82
2022/06/23 12:16:50;;;;;;;;;;;29.30;38.80;;;;;;5024026;28;20350;-84
2022/06/23 12:19:17;;;;;;;;;;;29.30;39.50;;;;;;5030657;28;19924;-83
2022/06/23 12:22:06;;;;;;;;;;;29.50;38.40;;;;;;5006621;28;19917;-83
2022/06/23 12:24:36;;;;;;;;;;;29.70;36.50;;;;;;5018965;28;19917;-83
2022/06/23 12:27:24;;;;;;;;;;;29.70;36.60;;;;;;5005064;28;19921;-83
2022/06/23 12:29:57;;;;;;;;;;;29.80;37.60;;;;;;5009105;28;20475;-83
2022/06/23 12:32:42;;;;;;;;;;;29.80;38.50;;;;;;5020676;28;20350;-83
2022/06/23 12:35:28;;;;;;;;;;;30.00;37.30;;;;;;4996277;28;20383;-82
2022/06/23 12:38:12;;;;;;;;;;;29.80;36.50;;;;;;5019164;28;19924;-82
2022/06/23 12:40:41;;;;;;;;;;;29.80;37.20;;;;;;4995686;28;19995;-82
2022/06/23 12:43:09;;;;;;;;;;;29.80;36.40;;;;;;4992774;28;19925;-82
2022/06/23 12:45:38;;;;;;;;;;;29.80;36.80;;;;;;5018135;28;19928;-82
2022/06/23 12:48:03;;;;;;;;;;;29.60;38.50;;;;;;5017792;28;19917;-82
2022/06/23 12:50:53;;;;;;;;;;;29.60;38.50;;;;;;5019271;28;20360;-83
2022/06/23 12:53:42;;;;;;;;;;;29.60;37.10;;;;;;4995489;28;19917;-83
2022/06/23 12:56:14;;;;;;;;;;;29.60;37.20;;;;;;4983516;28;19953;-82
2022/06/23 12:58:48;;;;;;;;;;;29.60;38.00;;;;;;4995990;28;19925;-83
2022/06/23 13:01:14;;;;;;;;;;;29.70;37.30;;;;;;4996393;28;19967;-83
2022/06/23 13:03:50;;;;;;;;;;;30.00;38.00;;;;;;5001038;28;19944;-83
2022/06/23 13:06:25;;;;;;;;;;;29.80;37.90;;;;;;5014738;28;19917;-84
2022/06/23 13:08:53;;;;;;;;;;;29.90;37.80;;;;;;5002942;28;19948;-83
2022/06/23 13:11:22;;;;;;;;;;;30.10;36.90;;;;;;5000550;28;20031;-81
2022/06/23 13:13:51;;;;;;;;;;;30.30;36.80;;;;;;5021930;28;19931;-81
2022/06/23 13:16:31;;;;;;;;;;;30.40;35.70;;;;;;5024867;28;19913;-83
2022/06/23 13:19:05;;;;;;;;;;;30.50;35.90;;;;;;5035414;28;20041;-84
2022/06/23 13:21:35;;;;;;;;;;;30.40;36.10;;;;;;5018963;28;20170;-84
2022/06/23 13:24:09;;;;;;;;;;;30.40;35.70;;;;;;4979035;28;19920;-83
2022/06/23 13:26:48;;;;;;;;;;;30.50;35.10;;;;;;5003065;28;19914;-83
2022/06/23 13:29:40;;;;;;;;;;;30.40;35.90;;;;;;4994266;28;20507;-82
2022/06/23 13:32:46;;;;;;;;;;;30.50;35.30;;;;;;4997757;28;19913;-82
2022/06/23 13:35:14;;;;;;;;;;;30.50;35.60;;;;;;5004100;28;20008;-83
2022/06/23 13:37:41;;;;;;;;;;;30.50;35.30;;;;;;4995038;28;19915;-82
2022/06/23 13:40:07;;;;;;;;;;;30.40;37.40;;;;;;4998685;28;20009;-82
2022/06/23 13:42:32;;;;;;;;;;;30.30;36.60;;;;;;5005738;28;19913;-81
2022/06/23 13:45:17;;;;;;;;;;;30.10;37.60;;;;;;4997993;28;20169;-82
2022/06/23 13:48:18;;;;;;;;;;;30.00;37.50;;;;;;4988133;28;19917;-83
2022/06/23 13:51:01;;;;;;;;;;;30.40;37.00;;;;;;4896922;29;20794;-80
2022/06/23 13:53:37;;;;;;;;;;;30.50;36.00;;;;;;4986013;28;20450;-81
2022/06/23 13:56:22;;;;;;;;;;;30.60;34.90;;;;;;5003608;28;20083;-81
2022/06/23 13:58:48;;;;;;;;;;;30.70;35.50;;;;;;4989291;28;19976;-82
2022/06/23 14:01:17;;;;;;;;;;;30.70;35.00;;;;;;4981954;28;19951;-82
2022/06/23 14:03:52;;;;;;;;;;;30.50;35.50;;;;;;5034968;28;19913;-83
2022/06/23 14:06:21;;;;;;;;;;;30.50;36.60;;;;;;5010852;28;20304;-84
2022/06/23 14:08:47;;;;;;;;;;;30.50;36.40;;;;;;5037089;28;20000;-84
2022/06/23 14:11:22;;;;;;;;;;;30.60;36.90;;;;;;5000858;28;20215;-82
2022/06/23 14:13:51;;;;;;;;;;;30.60;36.70;;;;;;4984804;28;19913;-84
2022/06/23 14:16:23;;;;;;;;;;;31.00;34.70;;;;;;5003753;28;19971;-83
2022/06/23 14:18:49;;;;;;;;;;;31.00;34.90;;;;;;4988498;28;20315;-81
2022/06/23 14:21:32;;;;;;;;;;;30.80;36.00;;;;;;5002506;28;20009;-80
2022/06/23 14:24:05;;;;;;;;;;;30.60;35.90;;;;;;4998113;28;20548;-80
2022/06/23 14:26:49;;;;;;;;;;;30.80;35.90;;;;;;4995793;28;20008;-79
2022/06/23 14:29:24;;;;;;;;;;;30.80;34.70;;;;;;4995762;28;20113;-81
2022/06/23 14:31:53;;;;;;;;;;;30.90;34.20;;;;;;5003266;28;19989;-83
2022/06/23 14:34:23;;;;;;;;;;;30.90;34.80;;;;;;4998947;28;19909;-81
2022/06/23 14:36:55;;;;;;;;;;;30.80;35.10;;;;;;5030046;28;19909;-81
2022/06/23 14:39:27;;;;;;;;;;;30.70;35.90;;;;;;4992608;28;20222;-81
2022/06/23 14:41:53;;;;;;;;;;;30.70;36.30;;;;;;5015087;28;20064;-81
2022/06/23 14:44:37;;;;;;;;;;;30.90;36.00;;;;;;4976062;28;20659;-84
2022/06/23 14:47:02;;;;;;;;;;;31.00;35.20;;;;;;4969229;28;19960;-83
2022/06/23 14:49:47;;;;;;;;;;;31.10;35.50;;;;;;4974614;28;19910;-82
2022/06/23 14:52:16;;;;;;;;;;;31.00;35.90;;;;;;4970323;28;20008;-83
2022/06/23 14:54:51;;;;;;;;;;;31.00;35.20;;;;;;4977863;28;20457;-83